createdAt,value
2023-01-15T01:23:16.738Z,40.42
2023-01-15T01:24:16.715Z,41.05
2023-01-15T01:25:16.720Z,39.76
2023-01-15T01:26:16.707Z,40.32
2023-01-15T01:27:16.704Z,43.76
2023-01-15T01:28:16.707Z,41.30
2023-01-15T01:29:16.695Z,40.48
2023-01-15T01:30:16.685Z,39.31
2023-01-15T01:31:16.700Z,39.13
2023-01-15T01:32:16.674Z,41.81
2023-01-15T01:33:16.678Z,41.81
2023-01-15T01:34:16.653Z,40.02
2023-01-15T01:35:16.656Z,38.97
2023-01-15T01:36:16.650Z,36.34
2023-01-15T01:37:16.656Z,38.06
2023-01-15T01:38:16.653Z,39.88
2023-01-15T01:39:16.658Z,41.84
2023-01-15T01:40:16.624Z,41.38
2023-01-15T01:41:16.627Z,37.84
2023-01-15T01:42:16.614Z,40.07
2023-01-15T01:43:16.604Z,40.42
2023-01-15T01:44:16.600Z,42.21
2023-01-15T01:45:16.585Z,41.88
2023-01-15T01:46:16.582Z,40.52
2023-01-15T01:47:16.575Z,41.25
2023-01-15T01:48:16.566Z,41.07
2023-01-15T01:49:16.572Z,41.32
2023-01-15T01:50:16.565Z,43.50
2023-01-15T01:51:16.561Z,41.70
2023-01-15T01:52:16.555Z,37.38
2023-01-15T01:53:16.571Z,38.30
2023-01-15T01:54:16.573Z,39.63
2023-01-15T01:55:16.578Z,39.39
2023-01-15T01:56:16.562Z,40.23
2023-01-15T01:57:16.562Z,37.57
2023-01-15T01:58:16.567Z,39.70
2023-01-15T01:59:16.580Z,40.24
2023-01-15T02:00:16.568Z,41.54
2023-01-15T02:01:16.651Z,41.20
2023-01-15T02:02:16.618Z,38.93
2023-01-15T02:03:16.558Z,43.46
2023-01-15T02:04:16.553Z,39.41
2023-01-15T02:05:16.549Z,40.39
2023-01-15T02:06:16.549Z,42.90
2023-01-15T02:07:16.540Z,42.56
2023-01-15T02:08:16.526Z,40.16
2023-01-15T02:09:16.536Z,43.45
2023-01-15T02:10:16.508Z,42.53
2023-01-15T02:11:16.520Z,42.27
2023-01-15T02:12:16.498Z,43.33
2023-01-15T02:13:16.513Z,39.89
2023-01-15T02:14:16.507Z,40.35
2023-01-15T02:15:16.490Z,41.94
2023-01-15T02:16:16.558Z,41.29
2023-01-15T02:17:16.504Z,40.94
2023-01-15T02:18:16.492Z,44.50
2023-01-15T02:19:16.528Z,44.15
2023-01-15T02:20:16.474Z,44.16
2023-01-15T02:21:16.460Z,43.69
2023-01-15T02:22:16.457Z,44.95
2023-01-15T02:23:16.452Z,41.25
2023-01-15T02:24:16.455Z,44.39
2023-01-15T02:25:16.428Z,45.56
2023-01-15T02:26:16.432Z,43.63
2023-01-15T02:27:16.426Z,43.20
2023-01-15T02:28:16.441Z,45.26
2023-01-15T02:29:16.459Z,44.20
2023-01-15T02:30:16.430Z,42.49
2023-01-15T02:31:16.447Z,44.95
2023-01-15T02:32:16.436Z,43.00
2023-01-15T02:33:16.436Z,46.27
2023-01-15T02:34:16.438Z,43.69
2023-01-15T02:35:16.422Z,44.81
2023-01-15T02:36:16.415Z,44.28
2023-01-15T02:37:16.412Z,42.62
2023-01-15T02:38:16.425Z,42.94
2023-01-15T02:39:16.412Z,44.47
2023-01-15T02:40:16.410Z,43.28
2023-01-15T02:41:16.536Z,43.51
2023-01-15T02:42:16.403Z,42.99
2023-01-15T02:43:16.392Z,43.47
2023-01-15T02:44:16.442Z,45.36
2023-01-15T02:45:16.382Z,44.68
2023-01-15T02:46:16.378Z,43.49
2023-01-15T02:47:16.363Z,44.81
2023-01-15T02:48:16.360Z,44.13
2023-01-15T02:49:16.345Z,45.13
2023-01-15T02:50:16.349Z,44.41
2023-01-15T02:51:16.323Z,42.36
2023-01-15T02:52:16.317Z,41.76
2023-01-15T02:53:16.308Z,44.59
2023-01-15T02:54:16.295Z,46.17
2023-01-15T02:55:16.296Z,43.27
2023-01-15T02:56:16.276Z,42.25
2023-01-15T02:57:16.263Z,39.74
2023-01-15T02:58:16.256Z,41.88
2023-01-15T02:59:16.234Z,42.88
2023-01-15T03:00:16.231Z,45.14
2023-01-15T03:01:16.426Z,45.61
2023-01-15T03:02:16.428Z,44.69
2023-01-15T03:03:16.217Z,46.61
2023-01-15T03:04:16.194Z,45.66
2023-01-15T03:05:16.185Z,45.01
2023-01-15T03:06:16.176Z,44.28
2023-01-15T03:07:16.164Z,44.49
2023-01-15T03:08:16.157Z,44.71
2023-01-15T03:09:16.162Z,44.77
2023-01-15T03:10:16.233Z,46.21
2023-01-15T03:11:16.147Z,47.26
2023-01-15T03:12:16.145Z,45.72
2023-01-15T03:13:16.143Z,46.97
2023-01-15T03:14:16.140Z,47.12
2023-01-15T03:15:16.151Z,47.26
2023-01-15T03:16:16.193Z,46.73
2023-01-15T03:17:16.142Z,47.39
2023-01-15T03:18:16.144Z,41.76
2023-01-15T03:19:16.144Z,44.88
2023-01-15T03:20:16.167Z,46.26
2023-01-15T03:21:16.134Z,45.41
2023-01-15T03:22:16.130Z,46.68
2023-01-15T03:23:16.131Z,43.62
2023-01-15T03:24:16.119Z,47.27
2023-01-15T03:25:16.116Z,40.84
2023-01-15T03:26:16.122Z,44.98
2023-01-15T03:27:16.117Z,43.86
2023-01-15T03:28:16.127Z,41.39
2023-01-15T03:29:16.141Z,41.48
2023-01-15T03:30:16.143Z,41.72
2023-01-15T03:31:16.138Z,41.96
2023-01-15T03:32:16.128Z,43.55
2023-01-15T03:33:16.112Z,44.54
2023-01-15T03:34:16.117Z,43.61
2023-01-15T03:35:16.106Z,46.17
2023-01-15T03:36:18.030Z,44.72
2023-01-15T03:37:16.099Z,46.95
2023-01-15T03:38:16.086Z,47.04
2023-01-15T03:39:16.084Z,46.20
2023-01-15T03:40:16.077Z,47.58
2023-01-15T03:41:16.066Z,47.45
2023-01-15T03:42:16.111Z,45.19
2023-01-15T03:43:16.037Z,45.38
2023-01-15T03:44:16.029Z,45.58
2023-01-15T03:45:16.025Z,45.45
2023-01-15T03:46:16.052Z,45.05
2023-01-15T03:47:15.997Z,45.78
2023-01-15T03:48:15.997Z,43.55
2023-01-15T03:49:15.978Z,46.75
2023-01-15T03:50:15.981Z,46.38
2023-01-15T03:51:15.972Z,49.45
2023-01-15T03:52:15.967Z,49.64
2023-01-15T03:53:15.966Z,49.80
2023-01-15T03:54:16.035Z,50.25
2023-01-15T03:55:15.943Z,51.32
2023-01-15T03:56:15.942Z,53.48
2023-01-15T03:57:15.929Z,51.37
2023-01-15T03:58:15.908Z,53.71
2023-01-15T03:59:15.896Z,53.48
2023-01-15T04:00:15.896Z,55.76
2023-01-15T04:01:15.985Z,55.62
2023-01-15T04:02:15.994Z,57.67
2023-01-15T04:03:15.862Z,57.23
2023-01-15T04:04:15.898Z,57.15
2023-01-15T04:05:15.839Z,58.39
2023-01-15T04:06:15.837Z,57.11
2023-01-15T04:07:15.822Z,59.78
2023-01-15T04:08:17.908Z,59.60
2023-01-15T04:09:15.798Z,59.69
2023-01-15T04:10:15.792Z,55.68
2023-01-15T04:11:15.792Z,56.90
2023-01-15T04:12:15.774Z,55.53
2023-01-15T04:13:15.763Z,52.83
2023-01-15T04:14:15.780Z,51.28
2023-01-15T04:15:15.753Z,51.90
2023-01-15T04:16:15.768Z,54.60
2023-01-15T04:17:15.745Z,53.30
2023-01-15T04:18:15.745Z,55.09
2023-01-15T04:19:15.738Z,52.10
2023-01-15T04:20:15.740Z,52.45
2023-01-15T04:21:15.727Z,54.38
2023-01-15T04:22:15.732Z,52.48
2023-01-15T04:23:15.745Z,54.47
2023-01-15T04:24:15.722Z,52.96
2023-01-15T04:25:15.715Z,53.39
2023-01-15T04:26:15.702Z,52.05
2023-01-15T04:27:15.696Z,51.98
2023-01-15T04:28:15.691Z,54.03
2023-01-15T04:29:15.681Z,52.26
2023-01-15T04:30:15.666Z,53.95
2023-01-15T04:31:15.683Z,54.54
2023-01-15T04:32:15.640Z,53.88
2023-01-15T04:33:15.630Z,53.48
2023-01-15T04:34:15.629Z,53.66
2023-01-15T04:35:15.625Z,52.39
2023-01-15T04:36:15.620Z,52.57
2023-01-15T04:37:15.607Z,50.56
2023-01-15T04:38:15.606Z,50.07
2023-01-15T04:39:15.591Z,51.63
2023-01-15T04:40:15.599Z,49.25
2023-01-15T04:41:15.585Z,50.60
2023-01-15T04:42:15.581Z,50.57
2023-01-15T04:43:15.575Z,48.71
2023-01-15T04:44:15.583Z,49.71
2023-01-15T04:45:15.570Z,51.92
2023-01-15T04:46:15.757Z,50.44
2023-01-15T04:47:15.542Z,50.64
2023-01-15T04:48:15.554Z,48.88
2023-01-15T04:49:15.537Z,51.59
2023-01-15T04:50:15.545Z,49.55
2023-01-15T04:51:15.532Z,50.05
2023-01-15T04:52:15.541Z,50.57
2023-01-15T04:53:15.527Z,48.46
2023-01-15T04:54:15.524Z,49.13
2023-01-15T04:55:15.518Z,49.74
2023-01-15T04:56:15.530Z,50.76
2023-01-15T04:57:15.523Z,50.89
2023-01-15T04:58:15.515Z,50.87
2023-01-15T04:59:15.510Z,47.43
2023-01-15T05:00:15.521Z,48.11
2023-01-15T05:01:15.705Z,47.12
2023-01-15T05:02:15.859Z,48.84
2023-01-15T05:03:15.509Z,48.68
2023-01-15T05:04:15.538Z,48.25
2023-01-15T05:05:15.505Z,48.57
2023-01-15T05:06:15.498Z,48.15
2023-01-15T05:07:15.503Z,49.05
2023-01-15T05:08:15.504Z,51.49
2023-01-15T05:09:15.487Z,48.29
2023-01-15T05:10:15.480Z,47.75
2023-01-15T05:11:15.475Z,47.54
2023-01-15T05:12:15.484Z,48.22
2023-01-15T05:13:15.468Z,44.96
2023-01-15T05:14:15.430Z,47.15
2023-01-15T05:15:15.414Z,37.13
2023-01-15T05:16:15.470Z,38.21
2023-01-15T05:17:15.388Z,41.44
2023-01-15T05:18:15.385Z,43.32
2023-01-15T05:19:15.372Z,43.41
2023-01-15T05:20:15.357Z,45.26
2023-01-15T05:21:15.339Z,40.43
2023-01-15T05:22:15.335Z,40.62
2023-01-15T05:23:15.322Z,44.03
2023-01-15T05:24:15.322Z,40.75
2023-01-15T05:25:15.311Z,43.84
2023-01-15T05:26:15.298Z,40.08
2023-01-15T05:27:15.289Z,37.25
2023-01-15T05:28:15.284Z,41.24
2023-01-15T05:29:15.278Z,41.73
2023-01-15T05:30:15.264Z,41.18
2023-01-15T05:31:15.279Z,42.59
2023-01-15T05:32:15.242Z,39.48
2023-01-15T05:33:15.236Z,39.41
2023-01-15T05:34:15.231Z,39.15
2023-01-15T05:35:15.232Z,40.11
2023-01-15T05:36:15.211Z,42.00
2023-01-15T05:37:15.228Z,38.26
2023-01-15T05:38:15.211Z,35.12
2023-01-15T05:39:15.211Z,38.22
2023-01-15T05:40:15.210Z,35.82
2023-01-15T05:41:15.204Z,37.71
2023-01-15T05:42:15.248Z,38.37
2023-01-15T05:43:15.211Z,26.16
2023-01-15T05:44:15.201Z,30.97
2023-01-15T05:45:15.201Z,32.94
2023-01-15T05:46:15.229Z,38.03
2023-01-15T05:47:15.181Z,36.33
2023-01-15T05:48:15.170Z,34.00
2023-01-15T05:49:15.174Z,34.02
2023-01-15T05:50:15.158Z,34.75
2023-01-15T05:51:15.143Z,35.51
2023-01-15T05:52:15.134Z,38.76
2023-01-15T05:53:15.132Z,39.29
2023-01-15T05:54:15.145Z,35.43
2023-01-15T05:55:15.104Z,38.78
2023-01-15T05:56:15.103Z,39.51
2023-01-15T05:57:15.096Z,41.68
2023-01-15T05:58:15.090Z,40.37
2023-01-15T05:59:15.066Z,40.63
2023-01-15T06:00:15.051Z,37.13
2023-01-15T06:01:15.057Z,31.73
2023-01-15T06:02:15.029Z,36.75
2023-01-15T06:03:15.013Z,35.25
2023-01-15T06:04:15.024Z,35.93
2023-01-15T06:05:14.996Z,36.17
2023-01-15T06:06:15.003Z,38.24
2023-01-15T06:07:14.984Z,38.04
2023-01-15T06:08:14.980Z,38.25
2023-01-15T06:09:14.972Z,38.81
2023-01-15T06:10:14.961Z,39.99
2023-01-15T06:11:14.952Z,36.68
2023-01-15T06:12:14.930Z,36.11
2023-01-15T06:13:14.929Z,38.03
2023-01-15T06:14:14.907Z,39.14
2023-01-15T06:15:14.898Z,40.55
2023-01-15T06:16:14.916Z,41.96
2023-01-15T06:17:14.877Z,37.72
2023-01-15T06:18:14.870Z,35.20
2023-01-15T06:19:14.847Z,37.00
2023-01-15T06:20:14.830Z,35.42
2023-01-15T06:21:14.828Z,37.50
2023-01-15T06:22:14.811Z,35.52
2023-01-15T06:23:14.797Z,38.67
2023-01-15T06:24:14.800Z,38.38
2023-01-15T06:25:14.772Z,40.04
2023-01-15T06:26:14.772Z,38.87
2023-01-15T06:27:14.758Z,40.43
2023-01-15T06:28:14.753Z,42.90
2023-01-15T06:29:14.754Z,45.88
2023-01-15T06:30:14.747Z,45.27
2023-01-15T06:31:14.803Z,44.17
2023-01-15T06:32:14.724Z,44.80
2023-01-15T06:33:14.712Z,44.49
2023-01-15T06:34:14.697Z,45.61
2023-01-15T06:35:14.693Z,43.80
2023-01-15T06:36:14.669Z,44.32
2023-01-15T06:37:14.662Z,45.27
2023-01-15T06:38:14.653Z,45.56
2023-01-15T06:39:14.652Z,46.39
2023-01-15T06:40:14.639Z,44.70
2023-01-15T06:41:14.630Z,38.65
2023-01-15T06:42:14.603Z,38.03
2023-01-15T06:43:14.596Z,41.18
2023-01-15T06:44:14.596Z,43.38
2023-01-15T06:45:14.573Z,41.48
2023-01-15T06:46:14.592Z,45.00
2023-01-15T06:47:14.543Z,44.40
2023-01-15T06:48:14.529Z,39.22
2023-01-15T06:49:14.511Z,35.49
2023-01-15T06:50:14.492Z,40.32
2023-01-15T06:51:14.480Z,40.37
2023-01-15T06:52:14.469Z,42.37
2023-01-15T06:53:14.466Z,42.60
2023-01-15T06:54:14.482Z,42.53
2023-01-15T06:55:14.445Z,40.53
2023-01-15T06:56:14.428Z,43.38
2023-01-15T06:57:14.423Z,44.22
2023-01-15T06:58:14.407Z,43.85
2023-01-15T06:59:14.396Z,45.34
2023-01-15T07:00:14.394Z,47.40
2023-01-15T07:01:14.457Z,48.30
2023-01-15T07:02:14.364Z,45.14
2023-01-15T07:03:14.383Z,41.28
2023-01-15T07:04:14.400Z,41.62
2023-01-15T07:05:14.357Z,42.26
2023-01-15T07:06:14.337Z,43.13
2023-01-15T07:07:14.333Z,45.01
2023-01-15T07:08:14.326Z,43.65
2023-01-15T07:09:14.326Z,37.18
2023-01-15T07:10:14.313Z,42.02
2023-01-15T07:11:14.304Z,42.63
2023-01-15T07:12:14.310Z,43.05
2023-01-15T07:13:14.305Z,42.41
2023-01-15T07:14:14.282Z,36.52
2023-01-15T07:15:14.286Z,40.05
2023-01-15T07:16:14.276Z,40.59
2023-01-15T07:17:14.256Z,42.68
2023-01-15T07:18:14.250Z,43.88
2023-01-15T07:19:14.235Z,41.03
2023-01-15T07:20:14.223Z,39.42
2023-01-15T07:21:14.211Z,41.85
2023-01-15T07:22:14.232Z,42.36
2023-01-15T07:23:16.619Z,43.66
2023-01-15T07:24:14.228Z,41.00
2023-01-15T07:25:14.224Z,37.90
2023-01-15T07:26:14.211Z,41.15
2023-01-15T07:27:14.221Z,37.07
2023-01-15T07:28:14.207Z,38.68
2023-01-15T07:29:14.185Z,39.83
2023-01-15T07:30:14.215Z,30.02
2023-01-15T07:31:14.220Z,31.03
2023-01-15T07:32:14.193Z,34.31
2023-01-15T07:33:14.181Z,34.57
2023-01-15T07:34:14.175Z,35.45
2023-01-15T07:35:14.163Z,37.54
2023-01-15T07:36:14.169Z,34.60
2023-01-15T07:37:14.161Z,34.83
2023-01-15T07:38:14.139Z,36.44
2023-01-15T07:39:14.136Z,40.46
2023-01-15T07:40:14.133Z,43.78
2023-01-15T07:41:14.114Z,43.12
2023-01-15T07:42:14.103Z,43.87
2023-01-15T07:43:14.104Z,44.62
2023-01-15T07:44:14.078Z,45.47
2023-01-15T07:45:14.079Z,44.60
2023-01-15T07:46:14.053Z,45.57
2023-01-15T07:47:14.055Z,43.21
2023-01-15T07:48:14.051Z,45.61
2023-01-15T07:49:14.024Z,45.45
2023-01-15T07:50:14.039Z,49.50
2023-01-15T07:51:14.013Z,50.67
2023-01-15T07:52:13.997Z,52.14
2023-01-15T07:53:14.027Z,53.46
2023-01-15T07:54:14.003Z,52.09
2023-01-15T07:55:13.998Z,53.15
2023-01-15T07:56:13.997Z,51.74
2023-01-15T07:57:14.009Z,50.95
2023-01-15T07:58:14.005Z,51.32
2023-01-15T07:59:13.991Z,52.54
2023-01-15T08:00:14.024Z,51.55
2023-01-15T08:01:14.090Z,48.71
2023-01-15T08:02:13.974Z,46.25
2023-01-15T08:03:13.982Z,46.33
2023-01-15T08:04:14.046Z,48.57
2023-01-15T08:05:13.989Z,47.59
2023-01-15T08:06:13.970Z,47.58
2023-01-15T08:07:13.967Z,40.85
2023-01-15T08:08:13.964Z,37.69
2023-01-15T08:09:13.982Z,38.22
2023-01-15T08:10:13.962Z,41.61
2023-01-15T08:11:13.944Z,41.86
2023-01-15T08:12:13.939Z,40.34
2023-01-15T08:13:13.932Z,38.46
2023-01-15T08:14:13.936Z,39.44
2023-01-15T08:15:13.925Z,42.08
2023-01-15T08:16:13.973Z,43.08
2023-01-15T08:17:13.902Z,41.76
2023-01-15T08:18:13.894Z,40.95
2023-01-15T08:19:13.893Z,39.64
2023-01-15T08:20:13.901Z,41.40
2023-01-15T08:21:13.905Z,42.73
2023-01-15T08:22:13.889Z,44.24
2023-01-15T08:23:13.886Z,40.50
2023-01-15T08:24:13.879Z,38.00
2023-01-15T08:25:13.875Z,39.40
2023-01-15T08:26:13.862Z,37.84
2023-01-15T08:27:13.860Z,38.50
2023-01-15T08:28:13.845Z,40.65
2023-01-15T08:29:13.853Z,37.69
2023-01-15T08:30:13.829Z,37.86
2023-01-15T08:31:13.990Z,38.33
2023-01-15T08:32:13.811Z,39.03
2023-01-15T08:33:13.812Z,38.52
2023-01-15T08:34:13.804Z,39.86
2023-01-15T08:35:13.792Z,39.81
2023-01-15T08:36:13.778Z,39.20
2023-01-15T08:37:13.777Z,42.71
2023-01-15T08:38:13.761Z,40.83
2023-01-15T08:39:13.753Z,42.66
2023-01-15T08:40:13.742Z,41.78
2023-01-15T08:41:13.748Z,44.49
2023-01-15T08:42:13.735Z,43.54
2023-01-15T08:43:13.729Z,45.04
2023-01-15T08:44:13.721Z,45.76
2023-01-15T08:45:13.722Z,43.61
2023-01-15T08:46:13.776Z,44.29
2023-01-15T08:47:13.721Z,42.28
2023-01-15T08:48:13.718Z,41.49
2023-01-15T08:49:13.720Z,42.33
2023-01-15T08:50:13.710Z,44.89
2023-01-15T08:51:13.712Z,43.79
2023-01-15T08:52:13.701Z,45.26
2023-01-15T08:53:13.702Z,44.26
2023-01-15T08:54:13.700Z,44.43
2023-01-15T08:55:13.701Z,44.76
2023-01-15T08:56:13.692Z,45.39
2023-01-15T08:57:13.689Z,44.38
2023-01-15T08:58:13.675Z,44.83
2023-01-15T08:59:13.674Z,44.67
2023-01-15T09:00:13.660Z,44.62
2023-01-15T09:01:13.686Z,46.29
2023-01-15T09:02:13.649Z,42.64
2023-01-15T09:03:13.644Z,43.97
2023-01-15T09:04:13.646Z,40.98
2023-01-15T09:05:13.617Z,42.51
2023-01-15T09:06:13.610Z,43.87
2023-01-15T09:07:13.679Z,44.56
2023-01-15T09:08:13.616Z,43.05
2023-01-15T09:09:13.621Z,42.89
2023-01-15T09:10:13.620Z,43.18
2023-01-15T09:11:13.605Z,44.13
2023-01-15T09:12:13.603Z,42.67
2023-01-15T09:13:13.592Z,43.46
2023-01-15T09:14:57.990Z,42.94
2023-01-15T09:15:13.587Z,43.16
2023-01-15T09:16:13.637Z,43.27
2023-01-15T09:17:13.584Z,42.97
2023-01-15T09:18:13.573Z,43.26
2023-01-15T09:19:13.571Z,44.43
2023-01-15T09:20:13.564Z,44.36
2023-01-15T09:21:13.565Z,42.38
2023-01-15T09:22:13.565Z,44.27
2023-01-15T09:23:13.551Z,42.96
2023-01-15T09:24:13.541Z,41.71
2023-01-15T09:25:13.546Z,39.86
2023-01-15T09:26:13.541Z,38.87
2023-01-15T09:27:13.540Z,38.42
2023-01-15T09:28:13.527Z,41.51
2023-01-15T09:29:13.521Z,41.41
2023-01-15T09:30:13.516Z,39.28
2023-01-15T09:31:13.534Z,41.24
2023-01-15T09:32:13.516Z,41.66
2023-01-15T09:33:13.502Z,40.59
2023-01-15T09:34:13.492Z,38.95
2023-01-15T09:35:13.499Z,40.48
2023-01-15T09:36:13.482Z,37.46
2023-01-15T09:37:13.487Z,37.61
2023-01-15T09:38:13.468Z,37.52
2023-01-15T09:39:13.499Z,39.00
2023-01-15T09:40:13.463Z,39.69
2023-01-15T09:41:13.450Z,39.51
2023-01-15T09:42:13.451Z,35.66
2023-01-15T09:43:13.447Z,36.99
2023-01-15T09:44:13.432Z,37.91
2023-01-15T09:45:13.431Z,37.72
2023-01-15T09:46:13.483Z,39.26
2023-01-15T09:47:13.430Z,37.70
2023-01-15T09:48:13.422Z,38.52
2023-01-15T09:49:13.408Z,38.96
2023-01-15T09:50:13.409Z,38.76
2023-01-15T09:51:13.402Z,38.65
2023-01-15T09:52:13.395Z,40.33
2023-01-15T09:53:13.411Z,38.39
2023-01-15T09:54:13.408Z,39.66
2023-01-15T09:55:13.402Z,40.81
2023-01-15T09:56:13.399Z,41.24
2023-01-15T09:57:13.399Z,42.30
2023-01-15T09:58:13.400Z,39.88
2023-01-15T09:59:13.401Z,36.45
2023-01-15T10:00:13.392Z,37.84
2023-01-15T10:01:13.416Z,39.72
2023-01-15T10:02:13.390Z,39.03
2023-01-15T10:03:13.458Z,39.41
2023-01-15T10:04:13.404Z,40.89
2023-01-15T10:05:13.379Z,39.76
2023-01-15T10:06:13.360Z,42.04
2023-01-15T10:07:13.366Z,39.15
2023-01-15T10:08:13.339Z,39.51
2023-01-15T10:09:13.327Z,40.64
2023-01-15T10:10:13.318Z,40.86
2023-01-15T10:11:13.308Z,40.14
2023-01-15T10:12:13.309Z,42.94
2023-01-15T10:13:13.314Z,44.89
2023-01-15T10:14:13.290Z,44.05
2023-01-15T10:15:13.294Z,41.55
2023-01-15T10:16:13.359Z,40.30
2023-01-15T10:17:13.281Z,38.78
2023-01-15T10:18:13.263Z,43.28
2023-01-15T10:19:13.251Z,42.21
2023-01-15T10:20:13.237Z,42.36
2023-01-15T10:21:13.225Z,38.88
2023-01-15T10:22:13.209Z,41.41
2023-01-15T10:23:13.210Z,39.79
2023-01-15T10:24:13.193Z,41.11
2023-01-15T10:25:13.190Z,41.04
2023-01-15T10:26:13.163Z,41.10
2023-01-15T10:27:13.173Z,39.69
2023-01-15T10:28:13.172Z,38.59
2023-01-15T10:29:13.152Z,41.06
2023-01-15T10:30:13.139Z,42.18
2023-01-15T10:31:13.166Z,41.55
2023-01-15T10:32:13.123Z,40.76
2023-01-15T10:33:13.110Z,41.59
2023-01-15T10:34:13.108Z,41.72
2023-01-15T10:35:13.100Z,41.60
2023-01-15T10:36:13.079Z,42.42
2023-01-15T10:37:13.070Z,40.33
2023-01-15T10:38:13.067Z,40.77
2023-01-15T10:39:13.047Z,41.16
2023-01-15T10:40:13.013Z,42.56
2023-01-15T10:41:13.007Z,43.22
2023-01-15T10:42:12.985Z,43.44
2023-01-15T10:43:12.974Z,43.75
2023-01-15T10:44:12.950Z,43.98
2023-01-15T10:45:12.948Z,43.58
2023-01-15T10:46:12.964Z,44.33
2023-01-15T10:47:12.913Z,47.32
2023-01-15T10:48:12.909Z,45.23
2023-01-15T10:49:12.912Z,45.39
2023-01-15T10:50:12.891Z,46.66
2023-01-15T10:51:12.882Z,46.08
2023-01-15T10:52:12.880Z,45.99
2023-01-15T10:53:12.872Z,48.59
2023-01-15T10:54:12.886Z,49.31
2023-01-15T10:55:12.867Z,48.43
2023-01-15T10:56:12.884Z,52.11
2023-01-15T10:57:12.855Z,51.69
2023-01-15T10:58:12.866Z,51.35
2023-01-15T10:59:12.838Z,53.08
2023-01-15T11:00:12.814Z,55.33
2023-01-15T11:01:12.852Z,56.13
2023-01-15T11:02:12.887Z,55.61
2023-01-15T11:03:12.801Z,54.66
2023-01-15T11:04:12.805Z,54.10
2023-01-15T11:05:12.756Z,54.04
2023-01-15T11:06:12.736Z,54.08
2023-01-15T11:07:12.731Z,51.59
2023-01-15T11:08:58.356Z,54.63
2023-01-15T11:09:13.704Z,54.75
2023-01-15T11:10:12.680Z,54.56
2023-01-15T11:11:12.678Z,52.67
2023-01-15T11:12:12.649Z,52.76
2023-01-15T11:13:12.641Z,51.66
2023-01-15T11:14:12.602Z,44.34
2023-01-15T11:15:12.579Z,42.52
2023-01-15T11:16:12.584Z,48.06
2023-01-15T11:17:12.536Z,41.78
2023-01-15T11:18:12.531Z,45.12
2023-01-15T11:19:12.499Z,44.87
2023-01-15T11:20:12.497Z,47.33
2023-01-15T11:21:12.480Z,47.15
2023-01-15T11:22:12.466Z,46.51
2023-01-15T11:23:12.456Z,46.23
2023-01-15T11:24:12.434Z,46.03
2023-01-15T11:25:12.452Z,46.48
2023-01-15T11:26:12.429Z,47.43
2023-01-15T11:27:12.422Z,46.74
2023-01-15T11:28:12.413Z,46.80
2023-01-15T11:29:12.411Z,48.96
2023-01-15T11:30:12.404Z,47.66
2023-01-15T11:31:12.425Z,48.00
2023-01-15T11:32:12.384Z,45.75
2023-01-15T11:33:12.373Z,46.26
2023-01-15T11:34:12.364Z,45.54
2023-01-15T11:35:12.339Z,44.33
2023-01-15T11:36:12.333Z,42.70
2023-01-15T11:37:12.321Z,43.87
2023-01-15T11:38:12.326Z,43.76
2023-01-15T11:39:12.307Z,44.15
2023-01-15T11:40:12.315Z,43.38
2023-01-15T11:41:12.286Z,40.47
2023-01-15T11:42:12.282Z,43.28
2023-01-15T11:43:12.285Z,42.47
2023-01-15T11:44:12.277Z,41.62
2023-01-15T11:45:12.262Z,41.66
2023-01-15T11:46:12.274Z,44.38
2023-01-15T11:47:12.248Z,42.77
2023-01-15T11:48:12.237Z,44.28
2023-01-15T11:49:12.235Z,43.93
2023-01-15T11:50:12.217Z,43.85
2023-01-15T11:51:12.212Z,43.42
2023-01-15T11:52:12.184Z,40.91
2023-01-15T11:53:33.170Z,41.16
2023-01-15T11:54:12.156Z,41.85
2023-01-15T11:55:12.144Z,43.30
2023-01-15T12:12:11.921Z,39.94
2023-01-15T15:46:10.047Z,91.93
2023-01-15T15:47:10.015Z,94.33
2023-01-15T15:48:10.023Z,92.91
2023-01-15T15:49:10.032Z,92.78
2023-01-15T15:50:10.180Z,93.45
2023-01-15T15:51:10.009Z,92.22
2023-01-15T15:52:10.031Z,93.40
2023-01-15T15:54:10.034Z,93.86
2023-01-15T15:55:10.036Z,94.17
2023-01-15T15:56:10.035Z,92.86
2023-01-15T15:57:10.041Z,94.68
2023-01-15T15:58:10.031Z,93.96
2023-01-15T15:59:10.028Z,93.03
2023-01-15T16:00:10.035Z,94.21
2023-01-15T16:01:10.117Z,92.87
2023-01-15T16:02:10.226Z,93.80
2023-01-15T16:03:10.090Z,95.66
2023-01-15T16:04:10.034Z,94.10
2023-01-15T16:05:10.038Z,94.06
2023-01-15T16:06:10.014Z,94.46
2023-01-15T16:07:10.015Z,94.94
2023-01-15T16:08:10.035Z,94.33
2023-01-15T16:09:10.032Z,95.54
2023-01-15T16:10:10.031Z,96.89
2023-01-15T16:11:10.021Z,96.81
2023-01-15T16:12:10.027Z,94.99
2023-01-15T16:13:10.031Z,95.99
2023-01-15T16:14:10.032Z,95.25
2023-01-15T16:15:10.031Z,96.85
2023-01-15T16:16:10.069Z,96.87
2023-01-15T16:17:10.021Z,96.69
2023-01-15T16:18:10.078Z,95.98
2023-01-15T16:19:10.001Z,94.96
2023-01-15T16:20:09.986Z,97.76
2023-01-15T16:21:09.978Z,97.70
2023-01-15T16:22:09.968Z,96.22
2023-01-15T16:23:09.961Z,96.58
2023-01-15T16:24:09.962Z,97.64
2023-01-15T16:25:09.977Z,96.71
2023-01-15T16:26:09.951Z,97.24
2023-01-15T16:27:09.945Z,97.85
2023-01-15T16:28:09.929Z,97.47
2023-01-15T16:29:09.918Z,97.62
2023-01-15T16:30:09.910Z,97.97
2023-01-15T16:31:09.958Z,97.65
2023-01-15T16:32:09.887Z,98.79
2023-01-15T16:33:09.870Z,97.64
2023-01-15T16:34:09.882Z,98.78
2023-01-15T16:35:09.863Z,98.93
2023-01-15T16:36:09.857Z,99.03
2023-01-15T16:37:09.838Z,99.13
2023-01-15T16:38:09.837Z,99.82
2023-01-15T16:39:09.849Z,98.87
2023-01-15T16:40:09.826Z,100.07
2023-01-15T16:41:09.822Z,98.20
2023-01-15T16:42:09.809Z,98.22
2023-01-15T16:43:09.815Z,97.83
2023-01-15T16:44:09.800Z,98.22
2023-01-15T16:45:09.802Z,99.26
2023-01-15T16:46:09.827Z,98.87
2023-01-15T16:47:09.804Z,98.59
2023-01-15T16:48:09.864Z,100.22
2023-01-15T16:49:09.788Z,98.45
2023-01-15T16:50:09.797Z,98.52
2023-01-15T16:51:09.787Z,98.64
2023-01-15T16:52:09.791Z,99.76
2023-01-15T16:53:09.783Z,100.26
2023-01-15T16:54:09.797Z,97.14
2023-01-15T16:55:09.783Z,99.64
2023-01-15T16:56:09.789Z,99.66
2023-01-15T16:57:09.785Z,98.43
2023-01-15T16:58:09.791Z,99.44
2023-01-15T16:59:09.787Z,99.49
2023-01-15T17:00:09.789Z,99.72
2023-01-15T17:01:09.852Z,96.57
2023-01-15T17:02:09.848Z,97.65
2023-01-15T17:03:09.782Z,99.10
2023-01-15T17:04:09.769Z,97.75
2023-01-15T17:05:09.816Z,95.63
2023-01-15T17:06:09.782Z,93.39
2023-01-15T17:07:09.767Z,91.41
2023-01-15T17:08:09.763Z,91.31
2023-01-15T17:09:09.757Z,91.15
2023-01-15T17:10:09.749Z,90.75
2023-01-15T17:11:09.741Z,87.97
2023-01-15T17:12:09.741Z,88.29
2023-01-15T17:13:09.723Z,89.33
2023-01-15T17:14:09.732Z,87.61
2023-01-15T17:15:11.495Z,85.84
2023-01-15T17:16:09.744Z,85.68
2023-01-15T17:17:09.709Z,84.66
2023-01-15T17:18:09.692Z,84.77
2023-01-15T17:19:09.685Z,84.66
2023-01-15T17:20:09.698Z,83.52
2023-01-15T17:21:09.662Z,84.69
2023-01-15T17:22:09.656Z,83.45
2023-01-15T17:23:09.644Z,80.72
2023-01-15T17:24:09.643Z,82.06
2023-01-15T17:25:09.636Z,82.85
2023-01-15T17:26:09.627Z,83.38
2023-01-15T17:27:09.616Z,80.57
2023-01-15T17:28:09.618Z,79.74
2023-01-15T17:29:09.634Z,79.49
2023-01-15T17:30:09.612Z,79.98
2023-01-15T17:31:09.676Z,80.34
2023-01-15T17:32:09.594Z,78.56
2023-01-15T17:33:09.579Z,77.54
2023-01-15T17:34:09.563Z,78.28
2023-01-15T17:35:09.550Z,76.57
2023-01-15T17:36:09.543Z,77.39
2023-01-15T17:37:09.540Z,77.38
2023-01-15T17:38:09.520Z,75.17
2023-01-15T17:39:09.519Z,75.69
2023-01-15T17:40:09.509Z,74.85
2023-01-15T17:41:09.504Z,77.76
2023-01-15T17:42:09.496Z,74.92
2023-01-15T17:43:09.477Z,75.35
2023-01-15T17:44:09.472Z,75.23
2023-01-15T17:45:09.459Z,73.68
2023-01-15T17:46:09.540Z,72.81
2023-01-15T17:47:09.441Z,72.09
2023-01-15T17:48:09.416Z,73.33
2023-01-15T17:49:09.409Z,74.08
2023-01-15T17:50:09.393Z,72.17
2023-01-15T17:51:09.378Z,71.96
2023-01-15T17:52:09.377Z,73.72
2023-01-15T17:53:09.367Z,72.30
2023-01-15T17:54:09.363Z,71.67
2023-01-15T18:09:09.281Z,72.69
2023-01-15T18:10:09.264Z,69.94
2023-01-15T18:11:09.269Z,70.29
2023-01-15T18:12:09.254Z,70.58
2023-01-15T18:13:09.254Z,71.38
2023-01-15T18:14:09.234Z,70.22
2023-01-15T18:15:09.231Z,70.60
2023-01-15T18:16:09.251Z,71.93
2023-01-15T18:17:09.193Z,72.48
2023-01-15T18:18:09.194Z,72.38
2023-01-15T18:19:09.166Z,71.13